sensor_id;sensor_type;location;lat;lon;timestamp;pressure;altitude;pressure_sealevel;temperature;humidity
26978;BME280;56314;48.088;11.642;2023-02-16T00:00:35;96444.63;;;-0.55;89.12
26978;BME280;56314;48.088;11.642;2023-02-16T00:03:01;96440.28;;;-0.53;89.16
26978;BME280;56314;48.088;11.642;2023-02-16T00:05:33;96438.63;;;-0.59;89.00
26978;BME280;56314;48.088;11.642;2023-02-16T00:08:00;96441.25;;;-0.60;88.90
26978;BME280;56314;48.088;11.642;2023-02-16T00:10:30;96441.13;;;-0.53;88.56
26978;BME280;56314;48.088;11.642;2023-02-16T00:12:56;96441.94;;;-0.49;89.26
26978;BME280;56314;48.088;11.642;2023-02-16T00:15:40;96438.53;;;-0.51;88.21
26978;BME280;56314;48.088;11.642;2023-02-16T00:18:14;96430.09;;;-0.61;88.02
26978;BME280;56314;48.088;11.642;2023-02-16T00:20:40;96431.06;;;-0.68;88.10
26978;BME280;56314;48.088;11.642;2023-02-16T00:23:06;96433.56;;;-0.62;87.83
26978;BME280;56314;48.088;11.642;2023-02-16T00:25:31;96437.88;;;-0.66;87.85
26978;BME280;56314;48.088;11.642;2023-02-16T00:27:56;96437.91;;;-0.67;87.87
26978;BME280;56314;48.088;11.642;2023-02-16T00:30:22;96427.53;;;-0.63;88.00
26978;BME280;56314;48.088;11.642;2023-02-16T00:32:47;96431.88;;;-0.66;87.94
26978;BME280;56314;48.088;11.642;2023-02-16T00:35:20;96428.34;;;-0.60;88.53
26978;BME280;56314;48.088;11.642;2023-02-16T00:37:47;96424.78;;;-0.53;87.82
26978;BME280;56314;48.088;11.642;2023-02-16T00:40:14;96422.31;;;-0.59;87.35
26978;BME280;56314;48.088;11.642;2023-02-16T00:42:40;96419.03;;;-0.68;87.29
26978;BME280;56314;48.088;11.642;2023-02-16T00:45:20;96412.03;;;-0.63;87.09
26978;BME280;56314;48.088;11.642;2023-02-16T00:47:47;96405.97;;;-0.58;87.50
26978;BME280;56314;48.088;11.642;2023-02-16T00:50:17;96415.56;;;-0.67;86.98
26978;BME280;56314;48.088;11.642;2023-02-16T00:52:43;96404.22;;;-0.56;87.17
26978;BME280;56314;48.088;11.642;2023-02-16T00:55:17;96402.72;;;-0.70;87.57
26978;BME280;56314;48.088;11.642;2023-02-16T00:57:48;96393.25;;;-0.69;87.39
26978;BME280;56314;48.088;11.642;2023-02-16T01:00:22;96398.22;;;-0.60;87.84
26978;BME280;56314;48.088;11.642;2023-02-16T01:02:50;96390.50;;;-0.58;87.51
26978;BME280;56314;48.088;11.642;2023-02-16T01:05:16;96381.78;;;-0.53;88.13
26978;BME280;56314;48.088;11.642;2023-02-16T01:07:41;96387.03;;;-0.59;87.62
26978;BME280;56314;48.088;11.642;2023-02-16T01:10:27;96381.03;;;-0.59;88.23
26978;BME280;56314;48.088;11.642;2023-02-16T01:13:12;96379.28;;;-0.57;88.71
26978;BME280;56314;48.088;11.642;2023-02-16T01:15:38;96376.66;;;-0.54;87.59
26978;BME280;56314;48.088;11.642;2023-02-16T01:18:05;96374.97;;;-0.57;87.89
26978;BME280;56314;48.088;11.642;2023-02-16T01:20:31;96375.72;;;-0.49;87.53
26978;BME280;56314;48.088;11.642;2023-02-16T01:22:57;96382.84;;;-0.65;87.80
26978;BME280;56314;48.088;11.642;2023-02-16T01:25:23;96377.75;;;-0.68;87.50
26978;BME280;56314;48.088;11.642;2023-02-16T01:27:48;96375.00;;;-0.60;87.52
26978;BME280;56314;48.088;11.642;2023-02-16T01:30:22;96381.22;;;-0.69;87.94
26978;BME280;56314;48.088;11.642;2023-02-16T01:32:48;96381.75;;;-0.51;87.54
26978;BME280;56314;48.088;11.642;2023-02-16T01:35:42;96386.91;;;-0.50;86.90
26978;BME280;56314;48.088;11.642;2023-02-16T01:38:27;96394.78;;;-0.57;87.25
26978;BME280;56314;48.088;11.642;2023-02-16T01:44:22;96387.19;;;-0.68;87.73
26978;BME280;56314;48.088;11.642;2023-02-16T01:46:59;96390.81;;;-0.79;88.27
26978;BME280;56314;48.088;11.642;2023-02-16T01:49:26;96394.28;;;-0.80;87.57
26978;BME280;56314;48.088;11.642;2023-02-16T01:51:57;96392.59;;;-0.82;88.59
26978;BME280;56314;48.088;11.642;2023-02-16T01:54:40;96394.44;;;-0.89;88.50
26978;BME280;56314;48.088;11.642;2023-02-16T02:02:18;96395.41;;;-0.98;89.57
26978;BME280;56314;48.088;11.642;2023-02-16T02:04:48;96396.88;;;-0.81;88.90
26978;BME280;56314;48.088;11.642;2023-02-16T02:07:45;96392.88;;;-0.99;88.67
26978;BME280;56314;48.088;11.642;2023-02-16T02:10:34;96397.91;;;-0.93;89.42
26978;BME280;56314;48.088;11.642;2023-02-16T02:13:21;96393.59;;;-0.91;88.12
26978;BME280;56314;48.088;11.642;2023-02-16T02:15:49;96399.63;;;-0.90;88.75
26978;BME280;56314;48.088;11.642;2023-02-16T02:18:14;96395.44;;;-0.99;89.56
26978;BME280;56314;48.088;11.642;2023-02-16T02:21:09;96395.38;;;-0.95;89.65
26978;BME280;56314;48.088;11.642;2023-02-16T02:38:28;96384.09;;;-0.89;88.85
26978;BME280;56314;48.088;11.642;2023-02-16T02:43:37;96386.91;;;-1.03;87.93
26978;BME280;56314;48.088;11.642;2023-02-16T02:46:15;96382.78;;;-1.15;88.45
26978;BME280;56314;48.088;11.642;2023-02-16T02:48:42;96379.25;;;-1.09;90.13
26978;BME280;56314;48.088;11.642;2023-02-16T02:53:57;96377.59;;;-1.13;90.15
26978;BME280;56314;48.088;11.642;2023-02-16T02:56:54;96375.00;;;-1.12;89.54
26978;BME280;56314;48.088;11.642;2023-02-16T02:59:43;96381.25;;;-1.27;90.35
26978;BME280;56314;48.088;11.642;2023-02-16T03:02:30;96376.94;;;-1.26;90.33
26978;BME280;56314;48.088;11.642;2023-02-16T03:04:58;96371.81;;;-1.28;89.87
26978;BME280;56314;48.088;11.642;2023-02-16T03:07:26;96370.09;;;-1.29;90.99
26978;BME280;56314;48.088;11.642;2023-02-16T03:10:12;96366.63;;;-1.26;89.37
26978;BME280;56314;48.088;11.642;2023-02-16T03:12:57;96373.56;;;-1.30;89.50
26978;BME280;56314;48.088;11.642;2023-02-16T03:15:26;96377.75;;;-1.22;89.94
26978;BME280;56314;48.088;11.642;2023-02-16T03:17:54;96376.09;;;-1.27;89.45
26978;BME280;56314;48.088;11.642;2023-02-16T03:20:40;96376.22;;;-1.34;89.85
26978;BME280;56314;48.088;11.642;2023-02-16T03:23:26;96377.91;;;-1.33;90.14
26978;BME280;56314;48.088;11.642;2023-02-16T03:26:10;96376.22;;;-1.34;89.52
26978;BME280;56314;48.088;11.642;2023-02-16T03:28:55;96379.69;;;-1.38;90.49
26978;BME280;56314;48.088;11.642;2023-02-16T03:31:39;96370.28;;;-1.43;90.27
26978;BME280;56314;48.088;11.642;2023-02-16T03:34:05;96371.16;;;-1.42;90.20
26978;BME280;56314;48.088;11.642;2023-02-16T03:36:33;96372.75;;;-1.35;89.99
26978;BME280;56314;48.088;11.642;2023-02-16T03:38:59;96366.66;;;-1.29;89.43
26978;BME280;56314;48.088;11.642;2023-02-16T03:41:30;96375.31;;;-1.32;88.62
26978;BME280;56314;48.088;11.642;2023-02-16T03:43:56;96369.34;;;-1.37;88.71
26978;BME280;56314;48.088;11.642;2023-02-16T03:46:22;96378.88;;;-1.44;89.88
26978;BME280;56314;48.088;11.642;2023-02-16T03:48:47;96377.09;;;-1.37;89.92
26978;BME280;56314;48.088;11.642;2023-02-16T03:51:13;96380.50;;;-1.33;89.71
26978;BME280;56314;48.088;11.642;2023-02-16T03:53:38;96378.69;;;-1.28;89.81
26978;BME280;56314;48.088;11.642;2023-02-16T03:56:04;96381.28;;;-1.31;89.20
26978;BME280;56314;48.088;11.642;2023-02-16T03:58:29;96386.34;;;-1.22;89.51
26978;BME280;56314;48.088;11.642;2023-02-16T04:00:54;96382.88;;;-1.22;88.72
26978;BME280;56314;48.088;11.642;2023-02-16T04:03:20;96388.03;;;-1.21;88.93
26978;BME280;56314;48.088;11.642;2023-02-16T04:05:45;96394.66;;;-1.03;87.84
26978;BME280;56314;48.088;11.642;2023-02-16T04:08:10;96389.59;;;-1.11;87.94
26978;BME280;56314;48.088;11.642;2023-02-16T04:10:37;96392.28;;;-1.20;87.40
26978;BME280;56314;48.088;11.642;2023-02-16T04:13:02;96395.13;;;-1.37;88.23
26978;BME280;56314;48.088;11.642;2023-02-16T04:15:29;96398.28;;;-1.18;88.31
26978;BME280;56314;48.088;11.642;2023-02-16T04:17:55;96396.66;;;-1.24;87.29
26978;BME280;56314;48.088;11.642;2023-02-16T04:20:23;96395.09;;;-1.34;87.92
26978;BME280;56314;48.088;11.642;2023-02-16T04:22:49;96399.47;;;-1.41;88.87
26978;BME280;56314;48.088;11.642;2023-02-16T04:25:15;96403.78;;;-1.41;89.27
26978;BME280;56314;48.088;11.642;2023-02-16T04:27:41;96402.94;;;-1.43;89.11
26978;BME280;56314;48.088;11.642;2023-02-16T04:30:10;96402.03;;;-1.41;89.36
26978;BME280;56314;48.088;11.642;2023-02-16T04:32:35;96406.53;;;-1.53;89.39
26978;BME280;56314;48.088;11.642;2023-02-16T04:35:01;96399.69;;;-1.58;89.20
26978;BME280;56314;48.088;11.642;2023-02-16T04:37:26;96399.59;;;-1.50;89.40
26978;BME280;56314;48.088;11.642;2023-02-16T04:39:51;96401.28;;;-1.46;88.94
26978;BME280;56314;48.088;11.642;2023-02-16T04:42:17;96404.72;;;-1.48;89.53
26978;BME280;56314;48.088;11.642;2023-02-16T04:44:42;96408.13;;;-1.45;89.45
26978;BME280;56314;48.088;11.642;2023-02-16T04:47:07;96400.31;;;-1.38;89.80
26978;BME280;56314;48.088;11.642;2023-02-16T04:49:33;96396.88;;;-1.39;88.71
26978;BME280;56314;48.088;11.642;2023-02-16T04:51:58;96388.31;;;-1.43;88.82
26978;BME280;56314;48.088;11.642;2023-02-16T04:54:25;96394.47;;;-1.53;89.21
26978;BME280;56314;48.088;11.642;2023-02-16T04:56:50;96396.06;;;-1.43;89.18
26978;BME280;56314;48.088;11.642;2023-02-16T04:59:16;96394.50;;;-1.55;89.22
26978;BME280;56314;48.088;11.642;2023-02-16T05:01:41;96385.94;;;-1.57;89.89
26978;BME280;56314;48.088;11.642;2023-02-16T05:04:07;96388.50;;;-1.55;89.21
26978;BME280;56314;48.088;11.642;2023-02-16T05:06:34;96391.25;;;-1.69;89.55
26978;BME280;56314;48.088;11.642;2023-02-16T05:09:00;96396.47;;;-1.74;90.74
26978;BME280;56314;48.088;11.642;2023-02-16T05:11:25;96391.22;;;-1.66;90.27
26978;BME280;56314;48.088;11.642;2023-02-16T05:14:24;96392.91;;;-1.63;89.79
26978;BME280;56314;48.088;11.642;2023-02-16T05:17:24;96386.97;;;-1.68;89.81
26978;BME280;56314;48.088;11.642;2023-02-16T05:19:52;96390.22;;;-1.56;90.00
26978;BME280;56314;48.088;11.642;2023-02-16T05:22:18;96388.59;;;-1.61;89.68
26978;BME280;56314;48.088;11.642;2023-02-16T05:24:44;96389.56;;;-1.70;89.27
26978;BME280;56314;48.088;11.642;2023-02-16T05:27:13;96388.63;;;-1.64;89.91
26978;BME280;56314;48.088;11.642;2023-02-16T05:29:38;96401.50;;;-1.64;90.12
26978;BME280;56314;48.088;11.642;2023-02-16T05:32:04;96389.53;;;-1.67;90.26
26978;BME280;56314;48.088;11.642;2023-02-16T05:34:30;96386.97;;;-1.68;90.72
26978;BME280;56314;48.088;11.642;2023-02-16T05:36:55;96388.63;;;-1.64;91.07
26978;BME280;56314;48.088;11.642;2023-02-16T05:39:20;96394.53;;;-1.58;91.42
26978;BME280;56314;48.088;11.642;2023-02-16T05:41:46;96390.25;;;-1.59;90.78
26978;BME280;56314;48.088;11.642;2023-02-16T05:44:11;96397.81;;;-1.46;90.93
26978;BME280;56314;48.088;11.642;2023-02-16T05:46:38;96400.34;;;-1.40;90.56
26978;BME280;56314;48.088;11.642;2023-02-16T05:49:05;96401.22;;;-1.43;90.68
26978;BME280;56314;48.088;11.642;2023-02-16T05:51:30;96404.59;;;-1.37;90.31
26978;BME280;56314;48.088;11.642;2023-02-16T05:53:56;96414.94;;;-1.41;90.69
26978;BME280;56314;48.088;11.642;2023-02-16T05:56:22;96414.94;;;-1.39;90.42
26978;BME280;56314;48.088;11.642;2023-02-16T05:58:48;96410.66;;;-1.42;90.44
26978;BME280;56314;48.088;11.642;2023-02-16T06:01:14;96417.50;;;-1.41;90.82
26978;BME280;56314;48.088;11.642;2023-02-16T06:03:39;96420.94;;;-1.42;90.31
26978;BME280;56314;48.088;11.642;2023-02-16T06:06:05;96430.31;;;-1.36;89.94
26978;BME280;56314;48.088;11.642;2023-02-16T06:08:31;96426.88;;;-1.35;89.55
26978;BME280;56314;48.088;11.642;2023-02-16T06:10:57;96426.09;;;-1.40;89.52
26978;BME280;56314;48.088;11.642;2023-02-16T06:13:24;96432.97;;;-1.39;88.97
26978;BME280;56314;48.088;11.642;2023-02-16T06:15:54;96436.44;;;-1.43;89.24
26978;BME280;56314;48.088;11.642;2023-02-16T06:18:21;96443.31;;;-1.44;89.10
26978;BME280;56314;48.088;11.642;2023-02-16T06:20:46;96446.81;;;-1.49;89.00
26978;BME280;56314;48.088;11.642;2023-02-16T06:23:12;96440.75;;;-1.45;89.40
26978;BME280;56314;48.088;11.642;2023-02-16T06:25:44;96447.66;;;-1.47;88.72
26978;BME280;56314;48.088;11.642;2023-02-16T06:28:12;96448.53;;;-1.50;89.48
26978;BME280;56314;48.088;11.642;2023-02-16T06:30:37;96455.44;;;-1.50;89.81
26978;BME280;56314;48.088;11.642;2023-02-16T06:33:03;96446.88;;;-1.52;90.13
26978;BME280;56314;48.088;11.642;2023-02-16T06:35:28;96445.84;;;-1.41;90.00
26978;BME280;56314;48.088;11.642;2023-02-16T06:37:54;96443.19;;;-1.34;90.74
26978;BME280;56314;48.088;11.642;2023-02-16T06:40:19;96447.41;;;-1.27;90.70
26978;BME280;56314;48.088;11.642;2023-02-16T06:42:45;96451.59;;;-1.21;90.11
26978;BME280;56314;48.088;11.642;2023-02-16T06:45:10;96450.63;;;-1.14;90.62
26978;BME280;56314;48.088;11.642;2023-02-16T06:47:36;96453.88;;;-0.98;90.21
26978;BME280;56314;48.088;11.642;2023-02-16T06:50:03;96458.84;;;-0.87;90.67
26978;BME280;56314;48.088;11.642;2023-02-16T06:52:29;96458.72;;;-0.76;89.89
26978;BME280;56314;48.088;11.642;2023-02-16T06:54:54;96452.50;;;-0.63;89.17
26978;BME280;56314;48.088;11.642;2023-02-16T06:57:20;96450.53;;;-0.50;88.83
26978;BME280;56314;48.088;11.642;2023-02-16T06:59:45;96452.97;;;-0.39;88.64
26978;BME280;56314;48.088;11.642;2023-02-16T07:02:11;96448.47;;;-0.29;88.33
26978;BME280;56314;48.088;11.642;2023-02-16T07:04:36;96460.25;;;-0.13;87.15
26978;BME280;56314;48.088;11.642;2023-02-16T07:07:02;96456.53;;;0.02;85.96
26978;BME280;56314;48.088;11.642;2023-02-16T07:09:28;96463.03;;;0.23;84.54
26978;BME280;56314;48.088;11.642;2023-02-16T07:11:53;96468.75;;;0.39;83.29
26978;BME280;56314;48.088;11.642;2023-02-16T07:14:19;96457.97;;;0.61;81.09
26978;BME280;56314;48.088;11.642;2023-02-16T07:16:44;96458.59;;;0.72;80.67
26978;BME280;56314;48.088;11.642;2023-02-16T07:19:09;96461.28;;;0.68;82.04
26978;BME280;56314;48.088;11.642;2023-02-16T07:21:35;96458.34;;;0.85;82.51
26978;BME280;56314;48.088;11.642;2023-02-16T07:24:00;96461.69;;;0.90;80.88
26978;BME280;56314;48.088;11.642;2023-02-16T07:26:26;96456.06;;;1.10;79.90
26978;BME280;56314;48.088;11.642;2023-02-16T07:28:52;96459.91;;;1.31;79.48
26978;BME280;56314;48.088;11.642;2023-02-16T07:31:17;96469.88;;;1.48;79.51
26978;BME280;56314;48.088;11.642;2023-02-16T07:33:43;96466.16;;;1.59;78.54
26978;BME280;56314;48.088;11.642;2023-02-16T07:36:10;96471.75;;;1.78;78.30
26978;BME280;56314;48.088;11.642;2023-02-16T07:38:37;96474.78;;;1.94;78.34
26978;BME280;56314;48.088;11.642;2023-02-16T07:41:02;96480.63;;;2.02;77.69
26978;BME280;56314;48.088;11.642;2023-02-16T07:43:28;96472.50;;;2.16;75.93
26978;BME280;56314;48.088;11.642;2023-02-16T07:45:53;96479.56;;;2.42;74.03
26978;BME280;56314;48.088;11.642;2023-02-16T07:48:19;96475.44;;;2.67;74.39
26978;BME280;56314;48.088;11.642;2023-02-16T07:50:44;96471.31;;;2.89;71.81
26978;BME280;56314;48.088;11.642;2023-02-16T07:53:09;96473.84;;;3.21;71.80
26978;BME280;56314;48.088;11.642;2023-02-16T07:55:39;96474.06;;;3.70;69.54
26978;BME280;56314;48.088;11.642;2023-02-16T07:58:05;96477.13;;;4.08;67.17
26978;BME280;56314;48.088;11.642;2023-02-16T08:00:31;96471.44;;;4.47;65.41
26978;BME280;56314;48.088;11.642;2023-02-16T08:02:56;96469.28;;;4.59;64.94
26978;BME280;56314;48.088;11.642;2023-02-16T08:05:22;96465.91;;;5.04;63.53
26978;BME280;56314;48.088;11.642;2023-02-16T08:07:47;96472.19;;;4.99;64.77
26978;BME280;56314;48.088;11.642;2023-02-16T08:10:13;96463.28;;;5.28;64.05
26978;BME280;56314;48.088;11.642;2023-02-16T08:12:38;96463.34;;;5.49;64.24
26978;BME280;56314;48.088;11.642;2023-02-16T08:15:04;96464.38;;;5.65;63.30
26978;BME280;56314;48.088;11.642;2023-02-16T08:17:29;96470.50;;;6.09;62.63
26978;BME280;56314;48.088;11.642;2023-02-16T08:19:55;96459.31;;;6.67;60.88
26978;BME280;56314;48.088;11.642;2023-02-16T08:22:20;96452.41;;;6.85;60.13
26978;BME280;56314;48.088;11.642;2023-02-16T08:24:45;96459.44;;;7.40;57.85
26978;BME280;56314;48.088;11.642;2023-02-16T08:27:11;96470.03;;;7.57;57.55
26978;BME280;56314;48.088;11.642;2023-02-16T08:29:36;96458.88;;;8.41;55.44
26978;BME280;56314;48.088;11.642;2023-02-16T08:32:02;96456.78;;;8.99;53.37
26978;BME280;56314;48.088;11.642;2023-02-16T08:34:32;96456.31;;;9.08;52.87
26978;BME280;56314;48.088;11.642;2023-02-16T08:36:58;96462.25;;;8.94;53.80
26978;BME280;56314;48.088;11.642;2023-02-16T08:39:27;96459.53;;;9.76;52.73
26978;BME280;56314;48.088;11.642;2023-02-16T08:41:53;96463.63;;;10.12;50.69
26978;BME280;56314;48.088;11.642;2023-02-16T08:44:21;96453.03;;;10.44;48.56
26978;BME280;56314;48.088;11.642;2023-02-16T08:46:48;96455.72;;;10.28;48.10
26978;BME280;56314;48.088;11.642;2023-02-16T08:49:16;96458.09;;;10.47;48.42
26978;BME280;56314;48.088;11.642;2023-02-16T08:51:46;96457.09;;;10.78;48.18
26978;BME280;56314;48.088;11.642;2023-02-16T08:54:20;96444.53;;;10.98;46.12
26978;BME280;56314;48.088;11.642;2023-02-16T08:56:46;96447.19;;;11.26;45.21
26978;BME280;56314;48.088;11.642;2023-02-16T08:59:15;96441.38;;;11.62;44.79
26978;BME280;56314;48.088;11.642;2023-02-16T09:01:41;96442.25;;;11.48;45.39
26978;BME280;56314;48.088;11.642;2023-02-16T09:04:07;96443.88;;;12.06;44.03
26978;BME280;56314;48.088;11.642;2023-02-16T09:06:35;96443.19;;;12.55;43.85
26978;BME280;56314;48.088;11.642;2023-02-16T09:09:01;96438.84;;;12.93;42.90
26978;BME280;56314;48.088;11.642;2023-02-16T09:11:29;96435.22;;;13.81;41.86
26978;BME280;56314;48.088;11.642;2023-02-16T09:13:55;96440.25;;;13.73;40.59
26978;BME280;56314;48.088;11.642;2023-02-16T09:16:22;96436.25;;;14.27;39.58
26978;BME280;56314;48.088;11.642;2023-02-16T09:18:49;96437.41;;;14.23;39.01
26978;BME280;56314;48.088;11.642;2023-02-16T09:21:19;96431.06;;;15.07;39.38
26978;BME280;56314;48.088;11.642;2023-02-16T09:23:47;96423.16;;;16.06;36.32
26978;BME280;56314;48.088;11.642;2023-02-16T09:26:18;96426.94;;;16.46;35.03
26978;BME280;56314;48.088;11.642;2023-02-16T09:28:44;96417.53;;;17.15;33.46
26978;BME280;56314;48.088;11.642;2023-02-16T09:31:31;96419.09;;;18.18;31.38
26978;BME280;56314;48.088;11.642;2023-02-16T09:34:03;96418.84;;;18.98;29.52
26978;BME280;56314;48.088;11.642;2023-02-16T09:36:30;96418.53;;;19.01;30.01
26978;BME280;56314;48.088;11.642;2023-02-16T09:38:56;96420.53;;;19.73;28.53
26978;BME280;56314;48.088;11.642;2023-02-16T09:46:38;96411.41;;;20.74;26.80
26978;BME280;56314;48.088;11.642;2023-02-16T09:49:05;96417.31;;;21.12;25.45
26978;BME280;56314;48.088;11.642;2023-02-16T09:51:37;96408.38;;;21.73;24.60
26978;BME280;56314;48.088;11.642;2023-02-16T09:56:54;96409.72;;;22.93;23.26
26978;BME280;56314;48.088;11.642;2023-02-16T10:07:58;96413.00;;;22.55;23.55
26978;BME280;56314;48.088;11.642;2023-02-16T10:10:30;96416.13;;;22.67;23.09
26978;BME280;56314;48.088;11.642;2023-02-16T10:13:12;96412.81;;;22.48;22.93
26978;BME280;56314;48.088;11.642;2023-02-16T10:15:42;96407.44;;;22.73;23.14
26978;BME280;56314;48.088;11.642;2023-02-16T10:18:21;96409.75;;;21.93;23.15
26978;BME280;56314;48.088;11.642;2023-02-16T10:20:51;96406.75;;;22.05;23.33
26978;BME280;56314;48.088;11.642;2023-02-16T10:23:47;96402.94;;;22.49;23.62
26978;BME280;56314;48.088;11.642;2023-02-16T10:26:25;96412.72;;;21.74;22.99
26978;BME280;56314;48.088;11.642;2023-02-16T10:28:54;96410.28;;;21.46;23.50
26978;BME280;56314;48.088;11.642;2023-02-16T10:31:38;96414.00;;;20.39;23.75
26978;BME280;56314;48.088;11.642;2023-02-16T10:37:19;96413.06;;;19.58;25.67
26978;BME280;56314;48.088;11.642;2023-02-16T10:40:03;96421.06;;;19.02;26.69
26978;BME280;56314;48.088;11.642;2023-02-16T10:42:48;96426.34;;;18.55;27.00
26978;BME280;56314;48.088;11.642;2023-02-16T10:46:09;96420.63;;;18.10;26.92
26978;BME280;56314;48.088;11.642;2023-02-16T10:48:28;96417.56;;;18.25;26.69
26978;BME280;56314;48.088;11.642;2023-02-16T10:51:01;96412.19;;;19.12;25.87
26978;BME280;56314;48.088;11.642;2023-02-16T10:54:19;96407.56;;;19.42;25.52
26978;BME280;56314;48.088;11.642;2023-02-16T10:59:05;96396.19;;;20.66;24.49
26978;BME280;56314;48.088;11.642;2023-02-16T11:01:37;96399.38;;;20.43;24.29
26978;BME280;56314;48.088;11.642;2023-02-16T11:04:04;96396.53;;;20.19;24.75
26978;BME280;56314;48.088;11.642;2023-02-16T11:06:29;96395.16;;;19.96;24.07
26978;BME280;56314;48.088;11.642;2023-02-16T11:09:00;96399.13;;;19.18;24.69
26978;BME280;56314;48.088;11.642;2023-02-16T11:11:34;96400.19;;;18.40;25.89
26978;BME280;56314;48.088;11.642;2023-02-16T11:14:19;96400.63;;;18.45;25.72
26978;BME280;56314;48.088;11.642;2023-02-16T11:16:45;96396.00;;;18.95;24.53
26978;BME280;56314;48.088;11.642;2023-02-16T11:19:20;96400.19;;;18.50;24.80
26978;BME280;56314;48.088;11.642;2023-02-16T11:27:21;96395.47;;;16.93;27.18
26978;BME280;56314;48.088;11.642;2023-02-16T11:29:48;96395.72;;;17.12;27.69
26978;BME280;56314;48.088;11.642;2023-02-16T11:32:16;96397.44;;;17.22;27.42
26978;BME280;56314;48.088;11.642;2023-02-16T11:34:49;96394.72;;;17.63;28.31
26978;BME280;56314;48.088;11.642;2023-02-16T11:37:23;96381.03;;;18.17;26.61
26978;BME280;56314;48.088;11.642;2023-02-16T11:39:52;96369.09;;;18.41;25.84
26978;BME280;56314;48.088;11.642;2023-02-16T11:42:31;96371.22;;;18.47;25.57
26978;BME280;56314;48.088;11.642;2023-02-16T11:44:59;96367.28;;;18.51;25.32
26978;BME280;56314;48.088;11.642;2023-02-16T11:47:40;96364.03;;;18.57;26.82
26978;BME280;56314;48.088;11.642;2023-02-16T11:50:39;96354.47;;;18.74;26.19
26978;BME280;56314;48.088;11.642;2023-02-16T11:55:48;96343.34;;;18.89;25.62
26978;BME280;56314;48.088;11.642;2023-02-16T11:58:23;96349.47;;;18.61;25.85
26978;BME280;56314;48.088;11.642;2023-02-16T12:03:51;96336.88;;;18.64;25.93
26978;BME280;56314;48.088;11.642;2023-02-16T12:14:27;96330.09;;;17.14;27.63
26978;BME280;56314;48.088;11.642;2023-02-16T12:17:18;96330.88;;;16.33;28.90
26978;BME280;56314;48.088;11.642;2023-02-16T12:19:48;96336.50;;;15.32;29.49
26978;BME280;56314;48.088;11.642;2023-02-16T12:28:05;96330.53;;;14.05;31.65
26978;BME280;56314;48.088;11.642;2023-02-16T12:31:05;96339.94;;;13.73;32.67
26978;BME280;56314;48.088;11.642;2023-02-16T12:34:00;96340.81;;;13.49;33.07
26978;BME280;56314;48.088;11.642;2023-02-16T12:39:21;96336.63;;;13.34;33.13
26978;BME280;56314;48.088;11.642;2023-02-16T12:44:54;96333.91;;;13.22;33.32
26978;BME280;56314;48.088;11.642;2023-02-16T12:47:40;96326.22;;;13.68;31.70
26978;BME280;56314;48.088;11.642;2023-02-16T12:50:23;96311.22;;;14.27;31.54
26978;BME280;56314;48.088;11.642;2023-02-16T12:52:56;96317.59;;;14.81;30.50
26978;BME280;56314;48.088;11.642;2023-02-16T12:55:30;96299.56;;;15.42;29.87
26978;BME280;56314;48.088;11.642;2023-02-16T13:05:44;96287.09;;;16.69;27.19
26978;BME280;56314;48.088;11.642;2023-02-16T13:08:27;96282.72;;;16.99;27.49
26978;BME280;56314;48.088;11.642;2023-02-16T13:10:57;96286.25;;;17.39;27.43
26978;BME280;56314;48.088;11.642;2023-02-16T13:13:30;96291.00;;;17.35;25.93
26978;BME280;56314;48.088;11.642;2023-02-16T13:16:15;96282.47;;;17.51;25.95
26978;BME280;56314;48.088;11.642;2023-02-16T13:18:45;96285.84;;;17.73;25.53
26978;BME280;56314;48.088;11.642;2023-02-16T13:27:40;96268.13;;;18.21;25.25
26978;BME280;56314;48.088;11.642;2023-02-16T13:30:37;96260.88;;;18.23;25.20
26978;BME280;56314;48.088;11.642;2023-02-16T13:35:47;96257.69;;;18.10;24.97
26978;BME280;56314;48.088;11.642;2023-02-16T13:41:54;96266.66;;;17.89;24.59
26978;BME280;56314;48.088;11.642;2023-02-16T13:44:39;96262.75;;;17.74;24.55
26978;BME280;56314;48.088;11.642;2023-02-16T13:47:09;96267.25;;;17.73;24.91
26978;BME280;56314;48.088;11.642;2023-02-16T13:49:38;96256.91;;;17.50;24.85
26978;BME280;56314;48.088;11.642;2023-02-16T13:52:10;96263.06;;;17.41;25.14
26978;BME280;56314;48.088;11.642;2023-02-16T13:54:40;96257.91;;;17.39;25.00
26978;BME280;56314;48.088;11.642;2023-02-16T13:57:12;96273.53;;;17.33;25.73
26978;BME280;56314;48.088;11.642;2023-02-16T14:02:09;96264.31;;;17.57;26.48
26978;BME280;56314;48.088;11.642;2023-02-16T14:09:44;96257.91;;;16.79;26.79
26978;BME280;56314;48.088;11.642;2023-02-16T14:19:38;96248.78;;;16.21;27.55
26978;BME280;56314;48.088;11.642;2023-02-16T14:22:09;96250.59;;;16.52;26.15
26978;BME280;56314;48.088;11.642;2023-02-16T14:24:36;96248.19;;;16.49;26.23
26978;BME280;56314;48.088;11.642;2023-02-16T14:27:08;96253.09;;;16.43;26.70
26978;BME280;56314;48.088;11.642;2023-02-16T14:29:37;96242.84;;;16.29;26.50
26978;BME280;56314;48.088;11.642;2023-02-16T14:32:34;96251.09;;;16.36;26.52
26978;BME280;56314;48.088;11.642;2023-02-16T14:35:12;96252.53;;;16.40;26.52
26978;BME280;56314;48.088;11.642;2023-02-16T14:37:40;96246.38;;;16.39;27.02
26978;BME280;56314;48.088;11.642;2023-02-16T14:40:16;96239.72;;;16.14;26.26
26978;BME280;56314;48.088;11.642;2023-02-16T14:42:50;96245.28;;;15.90;26.98
26978;BME280;56314;48.088;11.642;2023-02-16T14:45:44;96247.69;;;15.50;27.31
26978;BME280;56314;48.088;11.642;2023-02-16T14:48:28;96245.28;;;15.15;27.33
26978;BME280;56314;48.088;11.642;2023-02-16T14:51:19;96252.72;;;14.88;27.69
26978;BME280;56314;48.088;11.642;2023-02-16T14:54:00;96244.69;;;14.78;28.26
26978;BME280;56314;48.088;11.642;2023-02-16T14:59:51;96251.53;;;14.58;28.33
26978;BME280;56314;48.088;11.642;2023-02-16T15:02:33;96249.03;;;14.45;28.04
26978;BME280;56314;48.088;11.642;2023-02-16T15:05:20;96253.38;;;14.24;28.43
26978;BME280;56314;48.088;11.642;2023-02-16T15:07:47;96247.72;;;14.06;28.97
26978;BME280;56314;48.088;11.642;2023-02-16T15:10:18;96242.06;;;13.88;29.61